Time;durP1;ratioP1;P1;durP2;ratioP2;P2;SDS_P1;SDS_P2;PMS_P1;PMS_P2;Temp;Humidity;BMP_temperature;BMP_pressure;BME280_temperature;BME280_humidity;BME280_pressure;Samples;Min_cycle;Max_cycle;Signal;HPM_P1;HPM_P2
2022/11/05 00:33:41;;;;;;;4.47;0.93;;;10.70;99.90;;;;;;20735310;28;20638;-68
2022/11/05 00:54:03;;;;;;;1.57;0.87;;;;;;;;;;20711301;28;20223;-68
2022/11/05 01:04:05;;;;;;;3.03;1.10;;;;;;;;;;20792813;23;20299;-68
2022/11/05 01:14:10;;;;;;;2.27;1.10;;;10.60;99.90;;;;;;20856065;28;20206;-68
2022/11/05 01:24:11;;;;;;;1.33;0.80;;;;;;;;;;20853355;28;20226;-68
2022/11/05 01:34:13;;;;;;;1.50;1.20;;;;;;;;;;20853595;28;20581;-68
2022/11/05 01:44:34;;;;;;;2.00;1.20;;;;;;;;;;20868890;28;20230;-68
2022/11/05 01:54:36;;;;;;;1.20;0.80;;;;;;;;;;20850922;28;20754;-68
2022/11/05 02:04:52;;;;;;;1.03;0.70;;;10.60;99.90;;;;;;20851497;28;20747;-68
2022/11/05 02:14:55;;;;;;;1.40;0.87;;;;;;;;;;20821414;28;20636;-68
2022/11/05 02:25:06;;;;;;;1.23;0.70;;;;;;;;;;20851024;28;20283;-68
2022/11/05 02:35:15;;;;;;;1.10;0.80;;;;;;;;;;20880109;28;20213;-68
2022/11/05 02:45:33;;;;;;;1.53;0.83;;;10.50;99.90;;;;;;20870578;28;20283;-68
2022/11/05 02:55:50;;;;;;;1.40;0.80;;;;;;;;;;20905734;28;20260;-68
2022/11/05 03:05:59;;;;;;;1.37;0.80;;;;;;;;;;20880580;28;20229;-68
2022/11/05 03:16:25;;;;;;;1.80;1.00;;;;;;;;;;20879882;28;20763;-68
2022/11/05 03:26:30;;;;;;;2.10;1.20;;;;;;;;;;20852649;28;20260;-68
2022/11/05 03:36:40;;;;;;;1.80;0.93;;;;;;;;;;20861845;28;20205;-68
2022/11/05 03:46:44;;;;;;;1.77;1.17;;;;;;;;;;20860318;28;20225;-68
2022/11/05 03:57:18;;;;;;;1.90;1.17;;;10.40;99.90;;;;;;20860238;28;20233;-68
2022/11/05 04:17:40;;;;;;;1.67;0.67;;;;;;;;;;20875475;28;20580;-68
2022/11/05 04:27:42;;;;;;;1.70;0.90;;;;;;;;;;20842280;28;20260;-68
2022/11/05 04:37:44;;;;;;;1.10;0.60;;;;;;;;;;20873568;28;20214;-68
2022/11/05 04:47:46;;;;;;;1.17;0.63;;;;;;;;;;20856679;28;20364;-68
2022/11/05 04:57:52;;;;;;;1.63;0.70;;;10.30;99.90;;;;;;20872294;28;20201;-68
2022/11/05 05:07:54;;;;;;;0.90;0.70;;;;;;;;;;20871145;28;20923;-68
2022/11/05 05:17:56;;;;;;;0.90;0.70;;;;;;;;;;20857360;28;20247;-68
2022/11/05 05:27:58;;;;;;;0.80;0.53;;;;;;;;;;20882041;28;20214;-68
2022/11/05 05:37:59;;;;;;;1.20;0.60;;;;;;;;;;20853119;28;20206;-68
2022/11/05 05:48:03;;;;;;;1.80;0.90;;;;;;;;;;20875910;28;20303;-68
2022/11/05 05:58:04;;;;;;;0.63;0.40;;;;;;;;;;20868458;28;20256;-68
2022/11/05 06:08:06;;;;;;;1.00;0.70;;;;;;;;;;20852375;28;20222;-68
2022/11/05 06:18:08;;;;;;;1.50;0.57;;;;;;;;;;20878365;28;20226;-68
2022/11/05 06:28:11;;;;;;;0.77;0.60;;;;;;;;;;20909445;28;20233;-68
2022/11/05 06:38:13;;;;;;;0.97;0.60;;;;;;;;;;20911012;28;20206;-69
2022/11/05 06:48:14;;;;;;;1.60;0.67;;;;;;;;;;20876449;28;20218;-68
2022/11/05 06:58:16;;;;;;;1.23;0.77;;;;;;;;;;20907443;28;20270;-68
2022/11/05 07:08:18;;;;;;;1.37;0.90;;;;;;;;;;20951257;28;20575;-68
2022/11/05 07:18:20;;;;;;;1.40;0.77;;;;;;;;;;20820438;22;20242;-81
2022/11/05 07:28:22;;;;;;;1.93;1.03;;;;;;;;;;20800898;28;20234;-81
2022/11/05 07:38:24;;;;;;;1.70;0.93;;;;;;;;;;20816978;28;20696;-82
2022/11/05 07:48:25;;;;;;;1.73;1.07;;;;;;;;;;20754368;28;20650;-82
2022/11/05 07:58:27;;;;;;;1.13;0.80;;;;;;;;;;20734817;28;20207;-81
2022/11/05 08:08:29;;;;;;;1.33;0.73;;;;;;;;;;20734974;28;20262;-82
2022/11/05 08:18:35;;;;;;;1.40;0.80;;;;;;;;;;20717993;28;20257;-81
2022/11/05 08:28:48;;;;;;;1.73;0.93;;;;;;;;;;20734237;28;20604;-80
2022/11/05 08:38:51;;;;;;;2.23;0.97;;;;;;;;;;20753134;28;20250;-81
2022/11/05 08:48:56;;;;;;;2.23;0.90;;;;;;;;;;20722483;28;20342;-81
2022/11/05 08:58:58;;;;;;;1.40;0.73;;;;;;;;;;20741707;28;20256;-82
2022/11/05 09:09:00;;;;;;;1.97;1.20;;;;;;;;;;20742281;28;20282;-81
2022/11/05 09:19:05;;;;;;;1.67;0.70;;;;;;;;;;20743445;28;20301;-82
2022/11/05 09:29:06;;;;;;;1.73;0.83;;;;;;;;;;20711710;28;20219;-81
2022/11/05 09:39:09;;;;;;;1.17;0.63;;;;;;;;;;20726689;28;20227;-82
2022/11/05 09:49:20;;;;;;;1.77;1.00;;;;;;;;;;20724729;28;20293;-81
2022/11/05 09:59:39;;;;;;;1.53;0.80;;;;;;;;;;20744374;28;20206;-82
2022/11/05 10:09:49;;;;;;;3.23;0.80;;;;;;;;;;20726880;28;20295;-82
2022/11/05 10:19:57;;;;;;;2.03;1.07;;;;;;;;;;20724906;28;20281;-83
2022/11/05 10:30:00;;;;;;;2.33;0.90;;;;;;;;;;20713588;28;20297;-82
2022/11/05 10:40:01;;;;;;;1.40;0.60;;;;;;;;;;20707586;28;20215;-82
2022/11/05 10:50:15;;;;;;;1.43;0.97;;;;;;;;;;20743200;28;20230;-82
2022/11/05 11:00:17;;;;;;;1.83;0.80;;;;;;;;;;20755035;28;20219;-82
2022/11/05 11:10:20;;;;;;;1.07;0.60;;;;;;;;;;20739110;28;20583;-83
2022/11/05 11:20:35;;;;;;;1.10;0.70;;;;;;;;;;20738006;28;20255;-83
2022/11/05 11:30:49;;;;;;;0.90;0.60;;;;;;;;;;20891806;22;20291;-67
2022/11/05 11:41:00;;;;;;;1.03;0.73;;;13.00;99.90;;;;;;20879172;28;20582;-67
2022/11/05 11:51:15;;;;;;;1.33;0.70;;;;;;;;;;20878325;28;20213;-67
2022/11/05 12:01:38;;;;;;;2.20;0.80;;;13.00;99.90;;;;;;20945925;28;20707;-67
2022/11/05 12:12:06;;;;;;;1.20;0.70;;;12.30;99.90;;;;;;20943356;28;20289;-67
2022/11/05 12:22:11;;;;;;;0.83;0.53;;;;;;;;;;20958151;28;20605;-67
2022/11/05 12:32:22;;;;;;;0.77;0.50;;;;;;;;;;20957023;28;20225;-67
2022/11/05 12:42:42;;;;;;;0.63;0.40;;;;;;;;;;20956407;28;20262;-67
2022/11/05 12:52:44;;;;;;;2.30;0.70;;;;;;;;;;20955513;28;20220;-67
2022/11/05 13:02:57;;;;;;;0.60;0.50;;;12.00;99.90;;;;;;20970842;28;20254;-67
2022/11/05 13:13:03;;;;;;;2.37;0.67;;;;;;;;;;20962935;22;20662;-72
2022/11/05 13:23:08;;;;;;;0.70;0.60;;;;;;;;;;20986728;28;20282;-71
2022/11/05 13:33:34;;;;;;;0.97;0.50;;;12.20;99.90;;;;;;20985723;28;20213;-72
2022/11/05 13:44:16;;;;;;;1.47;0.97;;;12.10;99.90;;;;;;20982964;28;20213;-72
2022/11/05 13:54:18;;;;;;;2.50;0.93;;;;;;;;;;20984528;28;20711;-71
2022/11/05 14:04:19;;;;;;;1.03;0.80;;;;;;;;;;20983860;28;20254;-72
2022/11/05 14:14:24;;;;;;;2.17;0.80;;;;;;;;;;20982141;28;20229;-72
2022/11/05 14:24:27;;;;;;;2.00;0.97;;;;;;;;;;21002837;28;20768;-71
2022/11/05 14:34:52;;;;;;;1.20;0.73;;;11.80;99.90;;;;;;21078172;28;20591;-72
2022/11/05 14:45:18;;;;;;;2.07;1.30;;;11.60;99.90;;;;;;21059048;28;20764;-72
2022/11/05 14:55:46;;;;;;;1.30;0.93;;;;;;;;;;21063717;28;20479;-72
2022/11/05 15:06:20;;;;;;;1.50;0.90;;;11.50;99.90;;;;;;21076042;28;20224;-72
2022/11/05 15:16:23;;;;;;;1.60;1.00;;;11.30;99.90;;;;;;21080358;28;20261;-72
2022/11/05 15:26:33;;;;;;;1.47;0.80;;;11.30;99.90;;;;;;21079675;28;20224;-73
2022/11/05 15:36:36;;;;;;;3.40;1.27;;;;;;;;;;20958668;28;20221;-72
2022/11/05 15:46:38;;;;;;;1.10;0.83;;;;;;;;;;20905478;28;20274;-72
2022/11/05 15:56:46;;;;;;;1.77;1.03;;;;;;;;;;20967848;28;20213;-72
2022/11/05 16:06:57;;;;;;;2.00;1.30;;;11.00;99.90;;;;;;20924429;28;20299;-72
2022/11/05 16:17:09;;;;;;;1.50;0.90;;;;;;;;;;20894625;28;20213;-72
2022/11/05 16:27:18;;;;;;;1.13;0.80;;;;;;;;;;21018798;28;20607;-72
2022/11/05 16:37:22;;;;;;;2.13;1.00;;;10.80;99.90;;;;;;21038238;28;20260;-72
2022/11/05 16:47:29;;;;;;;1.87;1.10;;;;;;;;;;21053680;28;20775;-72
2022/11/05 16:57:31;;;;;;;2.00;1.20;;;;;;;;;;21001338;28;20217;-72
2022/11/05 17:07:33;;;;;;;1.97;1.00;;;;;;;;;;20905819;28;20244;-72
2022/11/05 17:17:36;;;;;;;1.77;1.07;;;;;;;;;;20871909;28;20696;-72
2022/11/05 17:27:38;;;;;;;3.83;1.27;;;;;;;;;;20985439;28;20289;-72
2022/11/05 17:37:40;;;;;;;1.73;1.10;;;;;;;;;;20991127;28;20758;-72
2022/11/05 17:47:41;;;;;;;1.83;1.30;;;;;;;;;;20967921;28;20220;-72
2022/11/05 17:57:44;;;;;;;3.00;2.00;;;;;;;;;;20945797;28;20218;-72
2022/11/05 18:07:47;;;;;;;5.40;3.33;;;;;;;;;;20895732;28;20226;-71
2022/11/05 18:17:49;;;;;;;3.87;1.90;;;;;;;;;;20878378;28;20218;-72
2022/11/05 18:27:52;;;;;;;5.43;2.50;;;;;;;;;;20893475;28;20264;-71
2022/11/05 18:37:54;;;;;;;3.53;2.03;;;;;;;;;;20873502;28;20221;-71
2022/11/05 18:47:56;;;;;;;4.40;2.53;;;;;;;;;;20892932;28;20287;-72
2022/11/05 18:57:58;;;;;;;7.00;2.90;;;;;;;;;;20858310;28;20238;-72
2022/11/05 19:08:01;;;;;;;2.10;1.20;;;;;;;;;;20890374;28;20238;-72
2022/11/05 19:18:03;;;;;;;1.60;0.90;;;;;;;;;;20975479;22;20291;-70
2022/11/05 19:28:05;;;;;;;1.60;0.83;;;;;;;;;;20923712;28;20294;-70
2022/11/05 19:38:07;;;;;;;1.30;0.80;;;;;;;;;;20939004;28;20575;-70
2022/11/05 19:48:09;;;;;;;1.97;0.90;;;;;;;;;;20922239;28;20696;-70
2022/11/05 19:58:11;;;;;;;3.10;2.00;;;;;;;;;;20907653;28;20279;-72
2022/11/05 20:08:14;;;;;;;2.00;1.33;;;;;;;;;;20920637;28;20221;-69
2022/11/05 20:18:17;;;;;;;3.60;1.50;;;;;;;;;;20915740;28;20241;-70
2022/11/05 20:28:19;;;;;;;1.77;0.83;;;;;;;;;;20923282;28;20217;-70
2022/11/05 20:38:20;;;;;;;1.83;0.90;;;;;;;;;;20936021;28;20209;-70
2022/11/05 20:48:23;;;;;;;1.60;0.90;;;;;;;;;;20950758;28;20298;-70
2022/11/05 20:58:24;;;;;;;1.30;0.90;;;;;;;;;;20934601;28;20704;-70
2022/11/05 21:08:26;;;;;;;5.30;3.70;;;;;;;;;;20915834;28;20229;-70
2022/11/05 21:18:30;;;;;;;1.60;0.80;;;;;;;;;;20951304;28;20290;-70
2022/11/05 21:28:32;;;;;;;3.77;1.57;;;;;;;;;;20932917;28;20213;-70
2022/11/05 21:38:35;;;;;;;2.23;1.03;;;;;;;;;;20951899;28;20282;-70
2022/11/05 21:48:37;;;;;;;4.00;1.23;;;;;;;;;;20951664;28;20589;-70
2022/11/05 22:08:59;;;;;;;2.03;1.03;;;;;;;;;;21021011;28;20277;-70
2022/11/05 22:19:01;;;;;;;1.03;0.57;;;;;;;;;;21004038;28;20273;-70
2022/11/05 22:29:03;;;;;;;2.63;1.10;;;;;;;;;;21033117;28;20230;-70
2022/11/05 22:39:05;;;;;;;4.40;1.27;;;;;;;;;;21032840;28;20638;-72
2022/11/05 22:49:07;;;;;;;1.47;0.77;;;;;;;;;;21056927;28;20232;-71
2022/11/05 22:59:11;;;;;;;1.93;1.10;;;;;;;;;;21031704;28;20201;-70
2022/11/05 23:30:06;;;;;;;2.07;1.10;;;8.40;99.90;;;;;;21033045;28;20281;-70
2022/11/05 23:40:12;;;;;;;2.10;1.17;;;;;;;;;;21044657;28;20209;-70
2022/11/05 23:50:14;;;;;;;4.00;1.20;;;;;;;;;;21028619;28;20228;-70
